sensor_id;sensor_type;location;lat;lon;timestamp;pressure;altitude;pressure_sealevel;temperature;humidity
77662;BME280;67292;52.136;5.424;2023-04-24T00:01:07;99974.94;;;10.01;100.00
77662;BME280;67292;52.136;5.424;2023-04-24T00:03:35;99980.31;;;9.99;100.00
77662;BME280;67292;52.136;5.424;2023-04-24T00:06:03;99978.59;;;9.98;100.00
77662;BME280;67292;52.136;5.424;2023-04-24T00:08:29;99981.38;;;9.95;100.00
77662;BME280;67292;52.136;5.424;2023-04-24T00:10:56;99981.53;;;9.92;100.00
77662;BME280;67292;52.136;5.424;2023-04-24T00:13:23;99988.78;;;9.88;100.00
77662;BME280;67292;52.136;5.424;2023-04-24T00:15:50;99988.91;;;9.85;100.00
77662;BME280;67292;52.136;5.424;2023-04-24T00:18:17;99994.31;;;9.84;100.00
77662;BME280;67292;52.136;5.424;2023-04-24T00:20:44;100012.06;;;9.83;100.00
77662;BME280;67292;52.136;5.424;2023-04-24T00:23:12;100005.78;;;9.84;100.00
77662;BME280;67292;52.136;5.424;2023-04-24T00:25:39;100000.63;;;9.81;100.00
77662;BME280;67292;52.136;5.424;2023-04-24T00:28:06;100008.59;;;9.81;100.00
77662;BME280;67292;52.136;5.424;2023-04-24T00:30:33;100006.88;;;9.80;100.00
77662;BME280;67292;52.136;5.424;2023-04-24T00:32:59;100007.72;;;9.81;100.00
77662;BME280;67292;52.136;5.424;2023-04-24T00:35:26;100014.72;;;9.83;100.00
77662;BME280;67292;52.136;5.424;2023-04-24T00:37:53;100012.31;;;9.77;100.00
77662;BME280;67292;52.136;5.424;2023-04-24T00:40:20;100008.09;;;9.73;100.00
77662;BME280;67292;52.136;5.424;2023-04-24T00:42:47;100002.91;;;9.70;100.00
77662;BME280;67292;52.136;5.424;2023-04-24T00:45:14;100007.34;;;9.70;100.00
77662;BME280;67292;52.136;5.424;2023-04-24T00:47:41;100004.75;;;9.68;100.00
77662;BME280;67292;52.136;5.424;2023-04-24T00:50:09;100009.25;;;9.66;100.00
77662;BME280;67292;52.136;5.424;2023-04-24T00:52:36;100010.13;;;9.67;100.00
77662;BME280;67292;52.136;5.424;2023-04-24T00:55:03;100015.38;;;9.68;100.00
77662;BME280;67292;52.136;5.424;2023-04-24T00:57:32;100027.78;;;9.68;100.00
77662;BME280;67292;52.136;5.424;2023-04-24T00:59:59;100032.25;;;9.67;100.00
77662;BME280;67292;52.136;5.424;2023-04-24T01:02:26;100020.75;;;9.67;100.00
77662;BME280;67292;52.136;5.424;2023-04-24T01:04:53;100029.66;;;9.66;100.00
77662;BME280;67292;52.136;5.424;2023-04-24T01:07:20;100024.56;;;9.61;100.00
77662;BME280;67292;52.136;5.424;2023-04-24T01:09:49;100026.19;;;9.64;100.00
77662;BME280;67292;52.136;5.424;2023-04-24T01:12:18;100030.56;;;9.65;100.00
77662;BME280;67292;52.136;5.424;2023-04-24T01:14:45;100028.78;;;9.65;100.00
77662;BME280;67292;52.136;5.424;2023-04-24T01:17:12;100039.47;;;9.64;100.00
77662;BME280;67292;52.136;5.424;2023-04-24T01:19:39;100039.41;;;9.65;100.00
77662;BME280;67292;52.136;5.424;2023-04-24T01:22:10;100041.34;;;9.62;100.00
77662;BME280;67292;52.136;5.424;2023-04-24T01:24:39;100054.47;;;9.65;100.00
77662;BME280;67292;52.136;5.424;2023-04-24T01:27:07;100040.16;;;9.69;100.00
77662;BME280;67292;52.136;5.424;2023-04-24T01:29:37;100047.25;;;9.68;100.00
77662;BME280;67292;52.136;5.424;2023-04-24T01:32:05;100044.72;;;9.65;100.00
77662;BME280;67292;52.136;5.424;2023-04-24T01:34:33;100048.19;;;9.67;100.00
77662;BME280;67292;52.136;5.424;2023-04-24T01:37:00;100042.81;;;9.69;100.00
77662;BME280;67292;52.136;5.424;2023-04-24T01:39:28;100046.19;;;9.72;100.00
77662;BME280;67292;52.136;5.424;2023-04-24T01:41:55;100050.66;;;9.72;100.00
77662;BME280;67292;52.136;5.424;2023-04-24T01:44:23;100046.97;;;9.74;100.00
77662;BME280;67292;52.136;5.424;2023-04-24T01:46:50;100049.63;;;9.74;100.00
77662;BME280;67292;52.136;5.424;2023-04-24T01:49:17;100054.00;;;9.75;100.00
77662;BME280;67292;52.136;5.424;2023-04-24T01:51:44;100046.97;;;9.74;100.00
77662;BME280;67292;52.136;5.424;2023-04-24T01:54:11;100058.34;;;9.78;100.00
77662;BME280;67292;52.136;5.424;2023-04-24T01:56:43;100057.41;;;9.79;100.00
77662;BME280;67292;52.136;5.424;2023-04-24T01:59:10;100058.34;;;9.78;100.00
77662;BME280;67292;52.136;5.424;2023-04-24T02:01:38;100056.56;;;9.78;100.00
77662;BME280;67292;52.136;5.424;2023-04-24T02:04:07;100056.47;;;9.80;100.00
77662;BME280;67292;52.136;5.424;2023-04-24T02:06:35;100053.81;;;9.80;100.00
77662;BME280;67292;52.136;5.424;2023-04-24T02:09:02;100053.81;;;9.80;100.00
77662;BME280;67292;52.136;5.424;2023-04-24T02:11:30;100052.91;;;9.81;100.00
77662;BME280;67292;52.136;5.424;2023-04-24T02:13:56;100050.94;;;9.84;100.00
77662;BME280;67292;52.136;5.424;2023-04-24T02:16:23;100056.44;;;9.81;100.00
77662;BME280;67292;52.136;5.424;2023-04-24T02:18:50;100053.81;;;9.80;100.00
77662;BME280;67292;52.136;5.424;2023-04-24T02:21:16;100059.94;;;9.82;100.00
77662;BME280;67292;52.136;5.424;2023-04-24T02:23:43;100058.28;;;9.79;100.00
77662;BME280;67292;52.136;5.424;2023-04-24T02:26:10;100051.16;;;9.80;100.00
77662;BME280;67292;52.136;5.424;2023-04-24T02:28:37;100058.28;;;9.79;100.00
77662;BME280;67292;52.136;5.424;2023-04-24T02:31:03;100054.75;;;9.79;100.00
77662;BME280;67292;52.136;5.424;2023-04-24T02:33:31;100049.50;;;9.77;100.00
77662;BME280;67292;52.136;5.424;2023-04-24T02:35:58;100052.09;;;9.79;100.00
77662;BME280;67292;52.136;5.424;2023-04-24T02:38:25;100057.34;;;9.80;100.00
77662;BME280;67292;52.136;5.424;2023-04-24T02:40:51;100055.69;;;9.78;100.00
77662;BME280;67292;52.136;5.424;2023-04-24T02:43:18;100060.13;;;9.77;100.00
77662;BME280;67292;52.136;5.424;2023-04-24T02:45:45;100055.81;;;9.75;100.00
77662;BME280;67292;52.136;5.424;2023-04-24T02:48:12;100063.66;;;9.78;100.00
77662;BME280;67292;52.136;5.424;2023-04-24T02:50:38;100056.72;;;9.74;100.00
77662;BME280;67292;52.136;5.424;2023-04-24T02:53:05;100053.03;;;9.78;100.00
77662;BME280;67292;52.136;5.424;2023-04-24T02:55:32;100054.94;;;9.74;100.00
77662;BME280;67292;52.136;5.424;2023-04-24T02:57:58;100058.41;;;9.76;100.00
77662;BME280;67292;52.136;5.424;2023-04-24T03:00:25;100052.16;;;9.77;100.00
77662;BME280;67292;52.136;5.424;2023-04-24T03:02:53;100057.34;;;9.80;100.00
77662;BME280;67292;52.136;5.424;2023-04-24T03:05:20;100056.56;;;9.78;100.00
77662;BME280;67292;52.136;5.424;2023-04-24T03:07:49;100055.50;;;9.82;100.00
77662;BME280;67292;52.136;5.424;2023-04-24T03:10:16;100055.63;;;9.79;100.00
77662;BME280;67292;52.136;5.424;2023-04-24T03:12:43;100052.09;;;9.79;100.00
77662;BME280;67292;52.136;5.424;2023-04-24T03:15:10;100051.16;;;9.80;100.00
77662;BME280;67292;52.136;5.424;2023-04-24T03:17:37;100054.75;;;9.79;100.00
77662;BME280;67292;52.136;5.424;2023-04-24T03:20:04;100060.94;;;9.79;100.00
77662;BME280;67292;52.136;5.424;2023-04-24T03:22:34;100049.50;;;9.77;100.00
77662;BME280;67292;52.136;5.424;2023-04-24T03:25:01;100045.00;;;9.79;100.00
77662;BME280;67292;52.136;5.424;2023-04-24T03:27:28;100052.97;;;9.79;100.00
77662;BME280;67292;52.136;5.424;2023-04-24T03:29:54;100049.50;;;9.77;100.00
77662;BME280;67292;52.136;5.424;2023-04-24T03:32:22;100058.16;;;9.82;100.00
77662;BME280;67292;52.136;5.424;2023-04-24T03:34:49;100064.41;;;9.81;100.00
77662;BME280;67292;52.136;5.424;2023-04-24T03:37:17;100066.06;;;9.84;100.00
77662;BME280;67292;52.136;5.424;2023-04-24T03:39:43;100063.41;;;9.84;100.00
77662;BME280;67292;52.136;5.424;2023-04-24T03:42:11;100065.19;;;9.83;100.00
77662;BME280;67292;52.136;5.424;2023-04-24T03:44:37;100065.19;;;9.83;100.00
77662;BME280;67292;52.136;5.424;2023-04-24T03:47:04;100059.00;;;9.83;100.00
77662;BME280;67292;52.136;5.424;2023-04-24T03:49:31;100064.41;;;9.81;100.00
77662;BME280;67292;52.136;5.424;2023-04-24T03:51:58;100059.94;;;9.82;100.00
77662;BME280;67292;52.136;5.424;2023-04-24T03:54:24;100065.19;;;9.83;100.00
77662;BME280;67292;52.136;5.424;2023-04-24T03:56:53;100057.34;;;9.80;100.00
77662;BME280;67292;52.136;5.424;2023-04-24T03:59:20;100067.97;;;9.80;100.00
77662;BME280;67292;52.136;5.424;2023-04-24T04:01:48;100067.91;;;9.82;100.00
77662;BME280;67292;52.136;5.424;2023-04-24T04:04:14;100070.63;;;9.80;100.00
77662;BME280;67292;52.136;5.424;2023-04-24T04:06:42;100072.44;;;9.80;100.00
77662;BME280;67292;52.136;5.424;2023-04-24T04:09:10;100078.66;;;9.79;100.00
77662;BME280;67292;52.136;5.424;2023-04-24T04:11:37;100084.97;;;9.76;100.00
77662;BME280;67292;52.136;5.424;2023-04-24T04:14:03;100082.53;;;9.72;100.00
77662;BME280;67292;52.136;5.424;2023-04-24T04:16:30;100078.19;;;9.69;100.00
77662;BME280;67292;52.136;5.424;2023-04-24T04:18:57;100089.69;;;9.70;100.00
77662;BME280;67292;52.136;5.424;2023-04-24T04:21:24;100078.38;;;9.65;100.00
77662;BME280;67292;52.136;5.424;2023-04-24T04:23:50;100084.56;;;9.65;100.00
77662;BME280;67292;52.136;5.424;2023-04-24T04:26:17;100089.88;;;9.65;100.00
77662;BME280;67292;52.136;5.424;2023-04-24T04:28:45;100090.81;;;9.64;100.00
77662;BME280;67292;52.136;5.424;2023-04-24T04:31:12;100089.00;;;9.65;100.00
77662;BME280;67292;52.136;5.424;2023-04-24T04:33:39;100087.22;;;9.65;100.00
77662;BME280;67292;52.136;5.424;2023-04-24T04:36:06;100099.56;;;9.66;100.00
77662;BME280;67292;52.136;5.424;2023-04-24T04:38:32;100101.31;;;9.67;100.00
77662;BME280;67292;52.136;5.424;2023-04-24T04:41:00;100104.81;;;9.68;100.00
77662;BME280;67292;52.136;5.424;2023-04-24T04:43:27;100107.38;;;9.71;100.00
77662;BME280;67292;52.136;5.424;2023-04-24T04:45:53;100108.16;;;9.73;100.00
77662;BME280;67292;52.136;5.424;2023-04-24T04:48:21;100110.88;;;9.71;100.00
77662;BME280;67292;52.136;5.424;2023-04-24T04:50:48;100116.03;;;9.74;100.00
77662;BME280;67292;52.136;5.424;2023-04-24T04:53:16;100112.63;;;9.72;100.00
77662;BME280;67292;52.136;5.424;2023-04-24T04:55:43;100120.44;;;9.75;100.00
77662;BME280;67292;52.136;5.424;2023-04-24T04:58:10;100115.13;;;9.75;100.00
77662;BME280;67292;52.136;5.424;2023-04-24T05:00:47;100123.09;;;9.75;100.00
77662;BME280;67292;52.136;5.424;2023-04-24T05:03:14;100124.81;;;9.76;100.00
77662;BME280;67292;52.136;5.424;2023-04-24T05:05:43;100133.59;;;9.78;100.00
77662;BME280;67292;52.136;5.424;2023-04-24T05:08:10;100149.47;;;9.80;100.00
77662;BME280;67292;52.136;5.424;2023-04-24T05:11:02;100144.16;;;9.80;100.00
77662;BME280;67292;52.136;5.424;2023-04-24T05:13:29;100143.28;;;9.79;100.00
77662;BME280;67292;52.136;5.424;2023-04-24T05:16:06;100144.22;;;9.78;100.00
77662;BME280;67292;52.136;5.424;2023-04-24T05:18:33;100148.59;;;9.79;100.00
77662;BME280;67292;52.136;5.424;2023-04-24T05:21:00;100143.28;;;9.79;100.00
77662;BME280;67292;52.136;5.424;2023-04-24T05:23:27;100159.88;;;9.84;100.00
77662;BME280;67292;52.136;5.424;2023-04-24T05:25:54;100167.84;;;9.84;100.00
77662;BME280;67292;52.136;5.424;2023-04-24T05:28:21;100165.28;;;9.83;100.00
77662;BME280;67292;52.136;5.424;2023-04-24T05:30:48;100173.06;;;9.87;100.00
77662;BME280;67292;52.136;5.424;2023-04-24T05:33:14;100175.66;;;9.89;100.00
77662;BME280;67292;52.136;5.424;2023-04-24T05:35:42;100179.19;;;9.89;100.00
77662;BME280;67292;52.136;5.424;2023-04-24T05:38:13;100182.69;;;9.90;100.00
77662;BME280;67292;52.136;5.424;2023-04-24T05:40:40;100185.47;;;9.87;100.00
77662;BME280;67292;52.136;5.424;2023-04-24T05:43:16;100190.84;;;9.85;100.00
77662;BME280;67292;52.136;5.424;2023-04-24T05:45:43;100196.03;;;9.88;100.00
77662;BME280;67292;52.136;5.424;2023-04-24T05:48:09;100202.34;;;9.86;100.00
77662;BME280;67292;52.136;5.424;2023-04-24T05:50:37;100202.34;;;9.86;100.00
77662;BME280;67292;52.136;5.424;2023-04-24T05:53:04;100206.94;;;9.82;100.00
77662;BME280;67292;52.136;5.424;2023-04-24T05:55:33;100212.97;;;9.86;100.00
77662;BME280;67292;52.136;5.424;2023-04-24T05:58:00;100219.41;;;9.80;100.00
77662;BME280;67292;52.136;5.424;2023-04-24T06:00:33;100223.88;;;9.80;100.00
77662;BME280;67292;52.136;5.424;2023-04-24T06:03:49;100233.75;;;9.76;100.00
77662;BME280;67292;52.136;5.424;2023-04-24T06:06:16;100232.94;;;9.74;100.00
77662;BME280;67292;52.136;5.424;2023-04-24T06:08:43;100239.97;;;9.75;100.00
77662;BME280;67292;52.136;5.424;2023-04-24T06:11:10;100238.25;;;9.74;100.00
77662;BME280;67292;52.136;5.424;2023-04-24T06:13:39;100243.72;;;9.71;100.00
77662;BME280;67292;52.136;5.424;2023-04-24T06:16:05;100246.59;;;9.65;100.00
77662;BME280;67292;52.136;5.424;2023-04-24T06:18:32;100252.06;;;9.62;100.00
77662;BME280;67292;52.136;5.424;2023-04-24T06:20:59;100259.25;;;9.59;100.00
77662;BME280;67292;52.136;5.424;2023-04-24T06:23:26;100254.94;;;9.56;100.00
77662;BME280;67292;52.136;5.424;2023-04-24T06:25:53;100270.13;;;9.52;100.00
77662;BME280;67292;52.136;5.424;2023-04-24T06:28:21;100274.66;;;9.50;100.00
77662;BME280;67292;52.136;5.424;2023-04-24T06:30:48;100276.50;;;9.48;100.00
77662;BME280;67292;52.136;5.424;2023-04-24T06:33:16;100282.78;;;9.46;100.00
77662;BME280;67292;52.136;5.424;2023-04-24T06:35:47;100282.16;;;9.39;100.00
77662;BME280;67292;52.136;5.424;2023-04-24T06:38:13;100283.13;;;9.37;100.00
77662;BME280;67292;52.136;5.424;2023-04-24T06:40:43;100303.44;;;9.38;100.00
77662;BME280;67292;52.136;5.424;2023-04-24T06:43:09;100292.88;;;9.36;100.00
77662;BME280;67292;52.136;5.424;2023-04-24T06:45:38;100312.28;;;9.38;100.00
77662;BME280;67292;52.136;5.424;2023-04-24T06:48:05;100322.97;;;9.37;100.00
77662;BME280;67292;52.136;5.424;2023-04-24T06:50:32;100323.88;;;9.36;100.00
77662;BME280;67292;52.136;5.424;2023-04-24T06:53:01;100331.78;;;9.37;100.00
77662;BME280;67292;52.136;5.424;2023-04-24T06:55:27;100344.31;;;9.34;100.00
77662;BME280;67292;52.136;5.424;2023-04-24T06:57:54;100347.00;;;9.32;100.00
77662;BME280;67292;52.136;5.424;2023-04-24T07:00:21;100351.34;;;9.35;100.00
77662;BME280;67292;52.136;5.424;2023-04-24T07:02:47;100358.56;;;9.31;100.00
77662;BME280;67292;52.136;5.424;2023-04-24T07:05:14;100356.66;;;9.35;100.00
77662;BME280;67292;52.136;5.424;2023-04-24T07:07:41;100369.13;;;9.33;100.00
77662;BME280;67292;52.136;5.424;2023-04-24T07:10:09;100370.91;;;9.32;100.00
77662;BME280;67292;52.136;5.424;2023-04-24T07:12:35;100386.97;;;9.29;100.00
77662;BME280;67292;52.136;5.424;2023-04-24T07:15:02;100384.31;;;9.29;100.00
77662;BME280;67292;52.136;5.424;2023-04-24T07:17:29;100397.75;;;9.25;100.00
77662;BME280;67292;52.136;5.424;2023-04-24T07:19:56;100408.31;;;9.26;100.00
77662;BME280;67292;52.136;5.424;2023-04-24T07:22:22;100421.69;;;9.23;100.00
77662;BME280;67292;52.136;5.424;2023-04-24T07:24:52;100423.66;;;9.18;100.00
77662;BME280;67292;52.136;5.424;2023-04-24T07:27:18;100427.28;;;9.15;100.00
77662;BME280;67292;52.136;5.424;2023-04-24T07:29:45;100434.41;;;9.13;100.00
77662;BME280;67292;52.136;5.424;2023-04-24T07:32:12;100434.41;;;9.13;100.00
77662;BME280;67292;52.136;5.424;2023-04-24T07:34:39;100446.78;;;9.14;100.00
77662;BME280;67292;52.136;5.424;2023-04-24T07:37:05;100454.72;;;9.14;100.00
77662;BME280;67292;52.136;5.424;2023-04-24T07:39:32;100449.56;;;9.10;100.00
77662;BME280;67292;52.136;5.424;2023-04-24T07:41:59;100452.31;;;9.08;100.00
77662;BME280;67292;52.136;5.424;2023-04-24T07:44:26;100471.06;;;9.02;100.00
77662;BME280;67292;52.136;5.424;2023-04-24T07:46:53;100469.28;;;9.03;100.00
77662;BME280;67292;52.136;5.424;2023-04-24T07:49:20;100471.03;;;9.04;100.00
77662;BME280;67292;52.136;5.424;2023-04-24T07:51:46;100482.47;;;9.06;100.00
77662;BME280;67292;52.136;5.424;2023-04-24T07:54:13;100478.88;;;9.07;100.00
77662;BME280;67292;52.136;5.424;2023-04-24T07:56:41;100487.72;;;9.07;100.00
77662;BME280;67292;52.136;5.424;2023-04-24T07:59:10;100488.69;;;9.05;100.00
77662;BME280;67292;52.136;5.424;2023-04-24T08:01:37;100501.69;;;9.12;100.00
77662;BME280;67292;52.136;5.424;2023-04-24T08:04:04;100501.63;;;9.14;100.00
77662;BME280;67292;52.136;5.424;2023-04-24T08:06:31;100506.03;;;9.15;100.00
77662;BME280;67292;52.136;5.424;2023-04-24T08:08:59;100512.13;;;9.19;100.00
77662;BME280;67292;52.136;5.424;2023-04-24T08:11:29;100533.34;;;9.19;100.00
77662;BME280;67292;52.136;5.424;2023-04-24T08:13:58;100536.16;;;9.14;100.00
77662;BME280;67292;52.136;5.424;2023-04-24T08:16:27;100527.63;;;9.04;100.00
77662;BME280;67292;52.136;5.424;2023-04-24T08:18:54;100541.66;;;9.08;100.00
77662;BME280;67292;52.136;5.424;2023-04-24T08:21:20;100546.25;;;9.03;100.00
77662;BME280;67292;52.136;5.424;2023-04-24T08:23:47;100542.84;;;8.98;100.00
77662;BME280;67292;52.136;5.424;2023-04-24T08:26:14;100545.63;;;8.95;100.00
77662;BME280;67292;52.136;5.424;2023-04-24T08:28:42;100577.59;;;8.90;100.00
77662;BME280;67292;52.136;5.424;2023-04-24T08:31:08;100563.63;;;8.85;100.00
77662;BME280;67292;52.136;5.424;2023-04-24T08:33:35;100582.22;;;8.85;100.00
77662;BME280;67292;52.136;5.424;2023-04-24T08:36:05;100589.34;;;8.83;100.00
77662;BME280;67292;52.136;5.424;2023-04-24T08:38:33;100590.13;;;8.87;100.00
77662;BME280;67292;52.136;5.424;2023-04-24T08:41:01;100595.44;;;8.87;100.00
77662;BME280;67292;52.136;5.424;2023-04-24T08:43:28;100601.47;;;8.90;100.00
77662;BME280;67292;52.136;5.424;2023-04-24T08:45:56;100597.84;;;8.94;100.00
77662;BME280;67292;52.136;5.424;2023-04-24T08:48:26;100603.75;;;9.02;100.00
77662;BME280;67292;52.136;5.424;2023-04-24T08:50:58;100601.94;;;9.04;100.00
77662;BME280;67292;52.136;5.424;2023-04-24T08:53:26;100614.81;;;9.17;100.00
77662;BME280;67292;52.136;5.424;2023-04-24T08:55:55;100619.38;;;9.11;100.00
77662;BME280;67292;52.136;5.424;2023-04-24T08:58:25;100619.28;;;9.14;100.00
77662;BME280;67292;52.136;5.424;2023-04-24T09:00:56;100631.69;;;9.14;100.00
77662;BME280;67292;52.136;5.424;2023-04-24T09:03:24;100638.66;;;9.18;100.00
77662;BME280;67292;52.136;5.424;2023-04-24T09:05:52;100635.84;;;9.23;100.00
77662;BME280;67292;52.136;5.424;2023-04-24T09:08:24;100635.13;;;9.18;100.00
77662;BME280;67292;52.136;5.424;2023-04-24T09:10:51;100635.94;;;9.20;100.00
77662;BME280;67292;52.136;5.424;2023-04-24T09:13:19;100640.41;;;9.19;100.00
77662;BME280;67292;52.136;5.424;2023-04-24T09:15:46;100652.84;;;9.17;100.00
77662;BME280;67292;52.136;5.424;2023-04-24T09:18:13;100650.31;;;9.12;100.00
77662;BME280;67292;52.136;5.424;2023-04-24T09:21:03;100659.13;;;9.14;100.00
77662;BME280;67292;52.136;5.424;2023-04-24T09:23:31;100662.34;;;9.24;100.00
77662;BME280;67292;52.136;5.424;2023-04-24T09:26:00;100658.53;;;9.33;100.00
77662;BME280;67292;52.136;5.424;2023-04-24T09:31:13;100671.41;;;9.45;100.00
77662;BME280;67292;52.136;5.424;2023-04-24T09:33:55;100676.22;;;9.60;100.00
77662;BME280;67292;52.136;5.424;2023-04-24T09:36:30;100678.28;;;9.78;100.00
77662;BME280;67292;52.136;5.424;2023-04-24T09:39:04;100683.00;;;9.95;100.00
77662;BME280;67292;52.136;5.424;2023-04-24T09:41:32;100686.34;;;10.02;100.00
77662;BME280;67292;52.136;5.424;2023-04-24T09:44:21;100692.94;;;10.16;100.00
77662;BME280;67292;52.136;5.424;2023-04-24T09:46:51;100697.91;;;10.27;100.00
77662;BME280;67292;52.136;5.424;2023-04-24T09:49:27;100698.31;;;10.40;100.00
77662;BME280;67292;52.136;5.424;2023-04-24T09:52:05;100705.50;;;10.38;100.00
77662;BME280;67292;52.136;5.424;2023-04-24T09:54:33;100711.06;;;10.30;100.00
77662;BME280;67292;52.136;5.424;2023-04-24T09:56:59;100714.94;;;10.21;100.00
77662;BME280;67292;52.136;5.424;2023-04-24T09:59:29;100721.41;;;10.13;100.00
77662;BME280;67292;52.136;5.424;2023-04-24T10:01:56;100725.47;;;9.97;100.00
77662;BME280;67292;52.136;5.424;2023-04-24T10:04:26;100723.97;;;9.89;100.00
77662;BME280;67292;52.136;5.424;2023-04-24T10:06:55;100729.31;;;9.88;100.00
77662;BME280;67292;52.136;5.424;2023-04-24T10:09:25;100725.66;;;9.92;100.00
77662;BME280;67292;52.136;5.424;2023-04-24T10:11:54;100731.53;;;10.02;100.00
77662;BME280;67292;52.136;5.424;2023-04-24T10:14:23;100739.28;;;10.08;100.00
77662;BME280;67292;52.136;5.424;2023-04-24T10:16:53;100730.56;;;10.04;100.00
77662;BME280;67292;52.136;5.424;2023-04-24T10:19:20;100736.56;;;10.09;100.00
77662;BME280;67292;52.136;5.424;2023-04-24T10:21:47;100731.22;;;10.11;100.00
77662;BME280;67292;52.136;5.424;2023-04-24T10:24:15;100732.34;;;10.04;99.54
77662;BME280;67292;52.136;5.424;2023-04-24T10:26:43;100743.13;;;9.99;99.52
77662;BME280;67292;52.136;5.424;2023-04-24T10:29:12;100742.22;;;10.00;100.00
77662;BME280;67292;52.136;5.424;2023-04-24T10:31:39;100749.16;;;10.04;97.99
77662;BME280;67292;52.136;5.424;2023-04-24T10:34:08;100749.91;;;10.08;100.00
77662;BME280;67292;52.136;5.424;2023-04-24T10:36:59;100749.59;;;10.17;100.00
77662;BME280;67292;52.136;5.424;2023-04-24T10:39:25;100758.19;;;10.27;99.86
77662;BME280;67292;52.136;5.424;2023-04-24T10:41:55;100756.91;;;10.38;100.00
77662;BME280;67292;52.136;5.424;2023-04-24T10:44:35;100765.94;;;10.59;100.00
77662;BME280;67292;52.136;5.424;2023-04-24T10:47:02;100766.94;;;10.80;99.56
77662;BME280;67292;52.136;5.424;2023-04-24T10:49:31;100759.66;;;10.85;96.57
77662;BME280;67292;52.136;5.424;2023-04-24T10:52:03;100770.19;;;10.88;97.38
77662;BME280;67292;52.136;5.424;2023-04-24T10:54:35;100774.78;;;10.83;95.33
77662;BME280;67292;52.136;5.424;2023-04-24T10:59:45;100779.53;;;10.50;97.83
77662;BME280;67292;52.136;5.424;2023-04-24T11:02:17;100782.03;;;10.54;96.69
77662;BME280;67292;52.136;5.424;2023-04-24T11:04:44;100784.09;;;10.46;97.61
77662;BME280;67292;52.136;5.424;2023-04-24T11:07:14;100784.28;;;10.40;97.10
77662;BME280;67292;52.136;5.424;2023-04-24T11:09:41;100792.44;;;10.36;97.54
77662;BME280;67292;52.136;5.424;2023-04-24T11:12:11;100785.53;;;10.30;97.19
77662;BME280;67292;52.136;5.424;2023-04-24T11:17:38;100810.31;;;10.04;98.77
77662;BME280;67292;52.136;5.424;2023-04-24T11:20:11;100819.16;;;10.05;99.22
77662;BME280;67292;52.136;5.424;2023-04-24T11:22:54;100822.16;;;9.94;99.11
77662;BME280;67292;52.136;5.424;2023-04-24T11:25:24;100825.88;;;9.88;99.96
77662;BME280;67292;52.136;5.424;2023-04-24T11:28:03;100820.72;;;9.84;99.96
77662;BME280;67292;52.136;5.424;2023-04-24T11:30:32;100830.22;;;9.91;100.00
77662;BME280;67292;52.136;5.424;2023-04-24T11:33:04;100818.50;;;9.97;100.00
77662;BME280;67292;52.136;5.424;2023-04-24T11:35:39;100824.78;;;10.23;100.00
77662;BME280;67292;52.136;5.424;2023-04-24T11:38:07;100822.09;;;10.50;100.00
77662;BME280;67292;52.136;5.424;2023-04-24T11:40:49;100820.31;;;10.75;99.44
77662;BME280;67292;52.136;5.424;2023-04-24T11:43:18;100820.91;;;10.83;97.81
77662;BME280;67292;52.136;5.424;2023-04-24T11:45:48;100821.19;;;10.76;97.89
77662;BME280;67292;52.136;5.424;2023-04-24T11:48:19;100832.72;;;10.76;97.04
77662;BME280;67292;52.136;5.424;2023-04-24T11:50:49;100834.28;;;10.82;98.00
77662;BME280;67292;52.136;5.424;2023-04-24T11:53:19;100828.31;;;11.00;98.60
77662;BME280;67292;52.136;5.424;2023-04-24T11:55:46;100830.53;;;11.12;98.13
77662;BME280;67292;52.136;5.424;2023-04-24T11:58:13;100839.88;;;11.24;95.55
77662;BME280;67292;52.136;5.424;2023-04-24T12:00:40;100846.94;;;11.48;97.14
77662;BME280;67292;52.136;5.424;2023-04-24T12:03:10;100840.28;;;11.60;97.26
77662;BME280;67292;52.136;5.424;2023-04-24T12:05:39;100842.94;;;11.83;96.43
77662;BME280;67292;52.136;5.424;2023-04-24T12:08:06;100850.28;;;11.78;94.13
77662;BME280;67292;52.136;5.424;2023-04-24T12:10:34;100862.28;;;11.65;93.78
77662;BME280;67292;52.136;5.424;2023-04-24T12:13:01;100855.78;;;11.49;91.35
77662;BME280;67292;52.136;5.424;2023-04-24T12:15:28;100863.66;;;11.28;91.49
77662;BME280;67292;52.136;5.424;2023-04-24T12:17:56;100873.41;;;11.29;94.87
77662;BME280;67292;52.136;5.424;2023-04-24T12:20:26;100869.38;;;11.18;93.06
77662;BME280;67292;52.136;5.424;2023-04-24T12:22:55;100875.69;;;11.15;93.09
77662;BME280;67292;52.136;5.424;2023-04-24T12:25:25;100880.41;;;11.07;93.42
77662;BME280;67292;52.136;5.424;2023-04-24T12:27:55;100882.88;;;10.88;91.63
77662;BME280;67292;52.136;5.424;2023-04-24T12:30:27;100884.97;;;10.79;92.28
77662;BME280;67292;52.136;5.424;2023-04-24T12:32:57;100890.63;;;10.70;92.23
77662;BME280;67292;52.136;5.424;2023-04-24T12:35:27;100902.22;;;10.67;93.01
77662;BME280;67292;52.136;5.424;2023-04-24T12:37:54;100896.63;;;10.75;94.13
77662;BME280;67292;52.136;5.424;2023-04-24T12:40:21;100899.31;;;10.75;92.17
77662;BME280;67292;52.136;5.424;2023-04-24T12:42:51;100907.47;;;10.70;92.74
77662;BME280;67292;52.136;5.424;2023-04-24T12:45:19;100908.41;;;10.68;92.36
77662;BME280;67292;52.136;5.424;2023-04-24T12:47:46;100905.91;;;10.63;92.03
77662;BME280;67292;52.136;5.424;2023-04-24T12:50:15;100916.81;;;10.55;92.47
77662;BME280;67292;52.136;5.424;2023-04-24T12:52:42;100917.88;;;10.50;92.04
77662;BME280;67292;52.136;5.424;2023-04-24T12:55:09;100920.69;;;10.45;91.73
77662;BME280;67292;52.136;5.424;2023-04-24T12:57:38;100919.88;;;10.43;93.87
77662;BME280;67292;52.136;5.424;2023-04-24T13:00:07;100925.28;;;10.40;92.68
77662;BME280;67292;52.136;5.424;2023-04-24T13:02:34;100923.88;;;10.29;92.38
77662;BME280;67292;52.136;5.424;2023-04-24T13:05:02;100946.22;;;10.23;94.03